sensor_id;sensor_type;location;lat;lon;timestamp;pressure;altitude;pressure_sealevel;temperature;humidity
28267;BME280;15525;45.568;5.448;2023-08-17T00:01:50;97996.47;;;28.84;35.35
28267;BME280;15525;45.568;5.448;2023-08-17T00:04:16;98001.22;;;28.94;35.22
28267;BME280;15525;45.568;5.448;2023-08-17T00:06:42;98002.03;;;28.94;35.10
28267;BME280;15525;45.568;5.448;2023-08-17T00:09:08;97999.28;;;28.98;35.45
28267;BME280;15525;45.568;5.448;2023-08-17T00:11:33;97990.19;;;28.90;35.63
28267;BME280;15525;45.568;5.448;2023-08-17T00:13:59;98001.94;;;28.73;36.11
28267;BME280;15525;45.568;5.448;2023-08-17T00:16:25;98007.41;;;28.59;36.32
28267;BME280;15525;45.568;5.448;2023-08-17T00:18:50;98013.66;;;28.49;37.00
28267;BME280;15525;45.568;5.448;2023-08-17T00:21:16;98006.41;;;28.20;37.14
28267;BME280;15525;45.568;5.448;2023-08-17T00:23:41;98008.00;;;28.21;37.57
28267;BME280;15525;45.568;5.448;2023-08-17T00:26:08;98003.97;;;28.04;37.92
28267;BME280;15525;45.568;5.448;2023-08-17T00:28:34;97998.38;;;27.94;38.03
28267;BME280;15525;45.568;5.448;2023-08-17T00:31:00;98016.47;;;27.95;38.02
28267;BME280;15525;45.568;5.448;2023-08-17T00:33:25;98002.41;;;28.10;37.85
28267;BME280;15525;45.568;5.448;2023-08-17T00:35:51;98007.09;;;28.03;38.38
28267;BME280;15525;45.568;5.448;2023-08-17T00:38:16;98007.09;;;28.03;37.87
28267;BME280;15525;45.568;5.448;2023-08-17T00:40:42;97999.56;;;27.96;38.34
28267;BME280;15525;45.568;5.448;2023-08-17T00:43:07;97990.53;;;27.96;38.19
28267;BME280;15525;45.568;5.448;2023-08-17T00:45:33;97994.44;;;27.95;38.46
28267;BME280;15525;45.568;5.448;2023-08-17T00:47:59;97995.94;;;27.82;38.62
28267;BME280;15525;45.568;5.448;2023-08-17T00:50:25;97995.09;;;27.78;38.88
28267;BME280;15525;45.568;5.448;2023-08-17T00:52:52;97998.75;;;27.89;38.48
28267;BME280;15525;45.568;5.448;2023-08-17T00:55:18;97992.59;;;27.59;39.21
28267;BME280;15525;45.568;5.448;2023-08-17T00:57:44;97988.50;;;27.39;39.57
28267;BME280;15525;45.568;5.448;2023-08-17T01:00:11;97997.94;;;27.38;39.50
28267;BME280;15525;45.568;5.448;2023-08-17T01:02:39;97992.38;;;27.34;39.47
28267;BME280;15525;45.568;5.448;2023-08-17T01:05:05;97994.03;;;27.46;39.16
28267;BME280;15525;45.568;5.448;2023-08-17T01:07:31;97995.56;;;27.40;39.14
28267;BME280;15525;45.568;5.448;2023-08-17T01:09:57;97998.59;;;27.28;39.42
28267;BME280;15525;45.568;5.448;2023-08-17T01:15:01;98009.72;;;27.02;39.75
28267;BME280;15525;45.568;5.448;2023-08-17T01:20:08;98007.41;;;26.71;40.40
28267;BME280;15525;45.568;5.448;2023-08-17T01:22:40;97998.53;;;26.55;40.79
28267;BME280;15525;45.568;5.448;2023-08-17T01:25:16;97998.75;;;26.69;40.69
28267;BME280;15525;45.568;5.448;2023-08-17T01:27:44;98003.13;;;26.73;40.52
28267;BME280;15525;45.568;5.448;2023-08-17T01:30:13;98003.81;;;26.67;40.86
28267;BME280;15525;45.568;5.448;2023-08-17T01:32:50;98003.31;;;26.58;41.03
28267;BME280;15525;45.568;5.448;2023-08-17T01:35:30;98001.81;;;26.64;40.89
28267;BME280;15525;45.568;5.448;2023-08-17T01:38:00;98003.34;;;26.32;41.47
28267;BME280;15525;45.568;5.448;2023-08-17T01:40:31;98008.84;;;26.32;41.39
28267;BME280;15525;45.568;5.448;2023-08-17T01:42:57;97991.28;;;26.40;41.31
28267;BME280;15525;45.568;5.448;2023-08-17T01:45:24;97998.56;;;26.25;41.57
28267;BME280;15525;45.568;5.448;2023-08-17T01:47:50;98001.50;;;26.39;41.35
28267;BME280;15525;45.568;5.448;2023-08-17T01:50:15;97994.53;;;26.49;41.28
28267;BME280;15525;45.568;5.448;2023-08-17T01:52:41;97988.50;;;26.66;40.98
28267;BME280;15525;45.568;5.448;2023-08-17T01:55:06;97981.66;;;26.86;40.29
28267;BME280;15525;45.568;5.448;2023-08-17T01:57:32;97987.31;;;27.00;40.16
28267;BME280;15525;45.568;5.448;2023-08-17T01:59:57;97986.16;;;27.01;40.01
28267;BME280;15525;45.568;5.448;2023-08-17T02:02:23;97987.66;;;26.95;40.29
28267;BME280;15525;45.568;5.448;2023-08-17T02:04:48;97968.66;;;26.50;41.36
28267;BME280;15525;45.568;5.448;2023-08-17T02:07:14;97977.06;;;26.31;41.39
28267;BME280;15525;45.568;5.448;2023-08-17T02:09:39;97981.38;;;26.02;42.18
28267;BME280;15525;45.568;5.448;2023-08-17T02:12:05;97982.41;;;26.20;41.74
28267;BME280;15525;45.568;5.448;2023-08-17T02:14:31;97976.50;;;26.48;41.25
28267;BME280;15525;45.568;5.448;2023-08-17T02:16:56;97972.88;;;26.70;40.86
28267;BME280;15525;45.568;5.448;2023-08-17T02:19:21;97982.84;;;26.55;40.88
28267;BME280;15525;45.568;5.448;2023-08-17T02:21:47;97983.56;;;26.49;41.17
28267;BME280;15525;45.568;5.448;2023-08-17T02:24:13;97986.94;;;26.65;40.98
28267;BME280;15525;45.568;5.448;2023-08-17T02:26:38;97994.75;;;26.63;41.52
28267;BME280;15525;45.568;5.448;2023-08-17T02:29:05;97991.41;;;26.47;42.28
28267;BME280;15525;45.568;5.448;2023-08-17T02:31:30;97990.38;;;26.29;43.17
28267;BME280;15525;45.568;5.448;2023-08-17T02:33:56;97995.53;;;26.34;42.98
28267;BME280;15525;45.568;5.448;2023-08-17T02:36:28;97992.78;;;26.34;42.44
28267;BME280;15525;45.568;5.448;2023-08-17T02:38:55;98002.00;;;26.19;42.30
28267;BME280;15525;45.568;5.448;2023-08-17T02:41:20;97995.88;;;26.29;42.23
28267;BME280;15525;45.568;5.448;2023-08-17T02:43:46;97998.31;;;26.37;42.13
28267;BME280;15525;45.568;5.448;2023-08-17T02:46:11;97985.09;;;26.46;41.96
28267;BME280;15525;45.568;5.448;2023-08-17T02:48:36;97989.47;;;26.51;41.87
28267;BME280;15525;45.568;5.448;2023-08-17T02:51:02;97992.97;;;26.48;41.92
28267;BME280;15525;45.568;5.448;2023-08-17T02:53:27;97984.56;;;26.34;42.17
28267;BME280;15525;45.568;5.448;2023-08-17T02:55:53;97990.75;;;26.27;42.25
28267;BME280;15525;45.568;5.448;2023-08-17T02:58:18;97982.53;;;26.31;42.27
28267;BME280;15525;45.568;5.448;2023-08-17T03:00:44;97985.06;;;26.43;42.34
28267;BME280;15525;45.568;5.448;2023-08-17T03:03:09;97987.47;;;26.48;42.28
28267;BME280;15525;45.568;5.448;2023-08-17T03:05:35;97989.88;;;26.53;41.97
28267;BME280;15525;45.568;5.448;2023-08-17T03:08:00;98002.53;;;26.57;42.00
28267;BME280;15525;45.568;5.448;2023-08-17T03:10:26;97991.75;;;26.45;42.34
28267;BME280;15525;45.568;5.448;2023-08-17T03:12:51;97995.28;;;26.46;42.34
28267;BME280;15525;45.568;5.448;2023-08-17T03:15:17;97988.97;;;26.42;42.42
28267;BME280;15525;45.568;5.448;2023-08-17T03:17:42;97988.72;;;26.24;42.60
28267;BME280;15525;45.568;5.448;2023-08-17T03:20:08;97988.72;;;26.24;42.68
28267;BME280;15525;45.568;5.448;2023-08-17T03:22:34;97990.72;;;26.24;42.73
28267;BME280;15525;45.568;5.448;2023-08-17T03:25:00;97989.72;;;26.39;42.57
28267;BME280;15525;45.568;5.448;2023-08-17T03:27:25;97970.16;;;26.44;42.65
28267;BME280;15525;45.568;5.448;2023-08-17T03:29:51;97981.25;;;26.51;42.93
28267;BME280;15525;45.568;5.448;2023-08-17T03:32:17;97987.47;;;26.48;43.10
28267;BME280;15525;45.568;5.448;2023-08-17T03:34:42;97993.09;;;26.25;43.64
28267;BME280;15525;45.568;5.448;2023-08-17T03:37:08;97992.56;;;26.16;43.91
28267;BME280;15525;45.568;5.448;2023-08-17T03:39:33;97988.66;;;26.17;44.49
28267;BME280;15525;45.568;5.448;2023-08-17T03:41:58;97988.59;;;26.14;44.73
28267;BME280;15525;45.568;5.448;2023-08-17T03:44:24;97989.69;;;26.06;44.70
28267;BME280;15525;45.568;5.448;2023-08-17T03:46:49;97992.59;;;26.20;44.64
28267;BME280;15525;45.568;5.448;2023-08-17T03:49:15;97997.56;;;26.37;44.35
28267;BME280;15525;45.568;5.448;2023-08-17T03:51:41;97995.00;;;26.21;44.93
28267;BME280;15525;45.568;5.448;2023-08-17T03:54:07;97999.56;;;26.14;45.35
28267;BME280;15525;45.568;5.448;2023-08-17T03:56:32;98012.34;;;26.29;45.16
28267;BME280;15525;45.568;5.448;2023-08-17T03:58:58;98019.59;;;26.44;44.65
28267;BME280;15525;45.568;5.448;2023-08-17T04:01:23;98014.31;;;26.32;44.94
28267;BME280;15525;45.568;5.448;2023-08-17T04:03:49;98021.81;;;26.35;44.92
28267;BME280;15525;45.568;5.448;2023-08-17T04:06:14;98029.19;;;26.27;44.97
28267;BME280;15525;45.568;5.448;2023-08-17T04:08:39;98035.72;;;26.19;45.23
28267;BME280;15525;45.568;5.448;2023-08-17T04:11:05;98049.97;;;26.28;44.88
28267;BME280;15525;45.568;5.448;2023-08-17T04:13:31;98054.91;;;26.45;44.81
28267;BME280;15525;45.568;5.448;2023-08-17T04:15:57;98058.72;;;26.37;44.89
28267;BME280;15525;45.568;5.448;2023-08-17T04:18:23;98056.88;;;26.45;44.89
28267;BME280;15525;45.568;5.448;2023-08-17T04:20:48;98060.13;;;26.54;44.55
28267;BME280;15525;45.568;5.448;2023-08-17T04:23:14;98060.56;;;26.56;44.50
28267;BME280;15525;45.568;5.448;2023-08-17T04:25:40;98065.72;;;26.57;44.59
28267;BME280;15525;45.568;5.448;2023-08-17T04:28:05;98066.63;;;26.42;45.17
28267;BME280;15525;45.568;5.448;2023-08-17T04:30:31;98067.91;;;26.48;45.28
28267;BME280;15525;45.568;5.448;2023-08-17T04:32:56;98070.59;;;26.45;45.24
28267;BME280;15525;45.568;5.448;2023-08-17T04:35:22;98072.34;;;26.56;44.86
28267;BME280;15525;45.568;5.448;2023-08-17T04:37:47;98077.78;;;26.53;45.28
28267;BME280;15525;45.568;5.448;2023-08-17T04:40:13;98074.06;;;26.12;46.30
28267;BME280;15525;45.568;5.448;2023-08-17T04:42:39;98077.78;;;26.27;46.20
28267;BME280;15525;45.568;5.448;2023-08-17T04:45:04;98075.00;;;26.23;46.42
28267;BME280;15525;45.568;5.448;2023-08-17T04:47:30;98071.25;;;26.35;46.23
28267;BME280;15525;45.568;5.448;2023-08-17T04:49:55;98071.34;;;26.42;46.19
28267;BME280;15525;45.568;5.448;2023-08-17T04:52:21;98069.34;;;26.39;46.50
28267;BME280;15525;45.568;5.448;2023-08-17T04:54:46;98069.34;;;26.13;47.28
28267;BME280;15525;45.568;5.448;2023-08-17T04:57:12;98080.13;;;25.99;47.66
28267;BME280;15525;45.568;5.448;2023-08-17T04:59:37;98079.38;;;26.02;47.87
28267;BME280;15525;45.568;5.448;2023-08-17T05:02:02;98079.91;;;26.11;47.76
28267;BME280;15525;45.568;5.448;2023-08-17T05:04:30;98073.63;;;26.10;47.78
28267;BME280;15525;45.568;5.448;2023-08-17T05:06:56;98073.16;;;26.05;47.89
28267;BME280;15525;45.568;5.448;2023-08-17T05:09:21;98078.50;;;25.94;48.19
28267;BME280;15525;45.568;5.448;2023-08-17T05:11:47;98078.59;;;26.01;47.97
28267;BME280;15525;45.568;5.448;2023-08-17T05:14:12;98072.09;;;26.13;47.60
28267;BME280;15525;45.568;5.448;2023-08-17T05:16:38;98082.75;;;26.18;47.76
28267;BME280;15525;45.568;5.448;2023-08-17T05:19:03;98078.78;;;26.15;47.97
28267;BME280;15525;45.568;5.448;2023-08-17T05:21:29;98087.25;;;26.03;48.33
28267;BME280;15525;45.568;5.448;2023-08-17T05:23:55;98090.47;;;26.09;48.40
28267;BME280;15525;45.568;5.448;2023-08-17T05:26:20;98078.56;;;26.24;48.33
28267;BME280;15525;45.568;5.448;2023-08-17T05:28:46;98091.31;;;26.13;48.32
28267;BME280;15525;45.568;5.448;2023-08-17T05:31:11;98090.63;;;26.19;48.23
28267;BME280;15525;45.568;5.448;2023-08-17T05:33:37;98092.28;;;26.24;48.27
28267;BME280;15525;45.568;5.448;2023-08-17T05:36:02;98089.00;;;26.15;49.02
28267;BME280;15525;45.568;5.448;2023-08-17T05:38:28;98094.84;;;26.13;49.15
28267;BME280;15525;45.568;5.448;2023-08-17T05:40:57;98088.25;;;26.18;49.46
28267;BME280;15525;45.568;5.448;2023-08-17T05:43:23;98078.78;;;26.15;49.51
28267;BME280;15525;45.568;5.448;2023-08-17T05:45:49;98077.69;;;26.20;49.65
28267;BME280;15525;45.568;5.448;2023-08-17T05:48:14;98078.91;;;26.22;49.56
28267;BME280;15525;45.568;5.448;2023-08-17T05:50:43;98075.03;;;26.27;49.75
28267;BME280;15525;45.568;5.448;2023-08-17T05:53:09;98067.78;;;26.12;50.20
28267;BME280;15525;45.568;5.448;2023-08-17T05:55:34;98067.69;;;26.05;50.27
28267;BME280;15525;45.568;5.448;2023-08-17T05:57:59;98059.31;;;25.98;50.11
28267;BME280;15525;45.568;5.448;2023-08-17T06:00:25;98054.31;;;25.81;50.25
28267;BME280;15525;45.568;5.448;2023-08-17T06:02:50;98057.09;;;25.58;49.90
28267;BME280;15525;45.568;5.448;2023-08-17T06:05:19;98066.63;;;25.68;49.41
28267;BME280;15525;45.568;5.448;2023-08-17T06:07:44;98082.19;;;25.83;48.65
28267;BME280;15525;45.568;5.448;2023-08-17T06:10:10;98083.16;;;25.94;48.19
28267;BME280;15525;45.568;5.448;2023-08-17T06:12:36;98074.00;;;26.09;48.20
28267;BME280;15525;45.568;5.448;2023-08-17T06:15:02;98079.59;;;26.16;47.83
28267;BME280;15525;45.568;5.448;2023-08-17T06:17:28;98073.91;;;26.28;47.63
28267;BME280;15525;45.568;5.448;2023-08-17T06:19:54;98072.94;;;26.43;47.08
28267;BME280;15525;45.568;5.448;2023-08-17T06:22:19;98066.94;;;26.60;47.13
28267;BME280;15525;45.568;5.448;2023-08-17T06:24:45;98062.38;;;26.74;46.79
28267;BME280;15525;45.568;5.448;2023-08-17T06:27:14;98059.59;;;26.71;46.35
28267;BME280;15525;45.568;5.448;2023-08-17T06:29:39;98068.69;;;26.75;46.23
28267;BME280;15525;45.568;5.448;2023-08-17T06:32:05;98072.88;;;26.98;45.64
28267;BME280;15525;45.568;5.448;2023-08-17T06:34:31;98078.59;;;27.16;45.57
28267;BME280;15525;45.568;5.448;2023-08-17T06:37:02;98077.13;;;27.25;45.34
28267;BME280;15525;45.568;5.448;2023-08-17T06:39:27;98076.06;;;27.37;45.28
28267;BME280;15525;45.568;5.448;2023-08-17T06:41:53;98072.56;;;27.36;45.47
28267;BME280;15525;45.568;5.448;2023-08-17T06:44:19;98077.53;;;27.24;45.82
28267;BME280;15525;45.568;5.448;2023-08-17T06:46:44;98067.78;;;27.30;46.01
28267;BME280;15525;45.568;5.448;2023-08-17T06:49:11;98070.88;;;27.25;46.28
28267;BME280;15525;45.568;5.448;2023-08-17T06:51:36;98077.84;;;27.19;45.95
28267;BME280;15525;45.568;5.448;2023-08-17T06:54:02;98071.75;;;27.36;45.51
28267;BME280;15525;45.568;5.448;2023-08-17T06:56:27;98074.25;;;27.51;44.81
28267;BME280;15525;45.568;5.448;2023-08-17T06:58:52;98059.38;;;27.56;44.93
28267;BME280;15525;45.568;5.448;2023-08-17T07:01:18;98070.13;;;27.71;44.88
28267;BME280;15525;45.568;5.448;2023-08-17T07:03:43;98067.66;;;28.03;44.24
28267;BME280;15525;45.568;5.448;2023-08-17T07:06:10;98079.91;;;28.12;44.20
28267;BME280;15525;45.568;5.448;2023-08-17T07:08:35;98065.03;;;28.24;44.25
28267;BME280;15525;45.568;5.448;2023-08-17T07:11:00;98067.09;;;28.34;43.63
28267;BME280;15525;45.568;5.448;2023-08-17T07:13:26;98066.84;;;28.53;43.38
28267;BME280;15525;45.568;5.448;2023-08-17T07:15:52;98064.53;;;28.66;43.19
28267;BME280;15525;45.568;5.448;2023-08-17T07:18:18;98068.78;;;28.56;43.43
28267;BME280;15525;45.568;5.448;2023-08-17T07:20:43;98066.91;;;28.71;43.08
28267;BME280;15525;45.568;5.448;2023-08-17T07:23:08;98079.91;;;28.74;43.24
28267;BME280;15525;45.568;5.448;2023-08-17T07:25:34;98073.66;;;28.84;43.18
28267;BME280;15525;45.568;5.448;2023-08-17T07:27:59;98076.84;;;28.96;42.75
28267;BME280;15525;45.568;5.448;2023-08-17T07:30:25;98070.22;;;29.11;42.24
28267;BME280;15525;45.568;5.448;2023-08-17T07:32:50;98064.41;;;29.44;41.86
28267;BME280;15525;45.568;5.448;2023-08-17T07:35:16;98054.59;;;29.75;41.34
28267;BME280;15525;45.568;5.448;2023-08-17T07:37:41;98058.94;;;29.93;41.21
28267;BME280;15525;45.568;5.448;2023-08-17T07:40:07;98059.72;;;30.08;40.95
28267;BME280;15525;45.568;5.448;2023-08-17T07:42:33;98062.91;;;30.17;40.63
28267;BME280;15525;45.568;5.448;2023-08-17T07:44:58;98064.47;;;30.35;39.57
28267;BME280;15525;45.568;5.448;2023-08-17T07:47:24;98058.50;;;30.37;38.92
28267;BME280;15525;45.568;5.448;2023-08-17T07:49:49;98066.03;;;30.33;38.75
28267;BME280;15525;45.568;5.448;2023-08-17T07:52:15;98051.03;;;30.27;38.75
28267;BME280;15525;45.568;5.448;2023-08-17T07:54:41;98065.63;;;30.34;39.05
28267;BME280;15525;45.568;5.448;2023-08-17T07:57:06;98064.78;;;30.58;38.44
28267;BME280;15525;45.568;5.448;2023-08-17T07:59:31;98061.13;;;30.89;38.08
28267;BME280;15525;45.568;5.448;2023-08-17T08:01:57;98061.47;;;31.05;37.46
28267;BME280;15525;45.568;5.448;2023-08-17T08:04:22;98059.00;;;31.18;36.88
28267;BME280;15525;45.568;5.448;2023-08-17T08:06:48;98060.19;;;31.20;36.63
28267;BME280;15525;45.568;5.448;2023-08-17T08:09:13;98063.56;;;31.52;36.23
28267;BME280;15525;45.568;5.448;2023-08-17T08:11:39;98060.75;;;31.59;35.98
28267;BME280;15525;45.568;5.448;2023-08-17T08:14:04;98054.41;;;31.62;35.63
28267;BME280;15525;45.568;5.448;2023-08-17T08:16:29;98050.56;;;31.97;35.08
28267;BME280;15525;45.568;5.448;2023-08-17T08:18:56;98039.94;;;31.95;35.13
28267;BME280;15525;45.568;5.448;2023-08-17T08:21:21;98044.00;;;32.24;34.74
28267;BME280;15525;45.568;5.448;2023-08-17T08:23:47;98045.38;;;32.46;34.29
28267;BME280;15525;45.568;5.448;2023-08-17T08:26:12;98046.94;;;32.84;33.78
28267;BME280;15525;45.568;5.448;2023-08-17T08:28:37;98048.59;;;32.75;33.81
28267;BME280;15525;45.568;5.448;2023-08-17T08:31:03;98042.69;;;32.73;33.52
28267;BME280;15525;45.568;5.448;2023-08-17T08:33:29;98042.59;;;32.83;33.51
28267;BME280;15525;45.568;5.448;2023-08-17T08:35:55;98043.97;;;32.98;32.64
28267;BME280;15525;45.568;5.448;2023-08-17T08:38:20;98046.66;;;33.35;32.39
28267;BME280;15525;45.568;5.448;2023-08-17T08:40:47;98042.88;;;33.49;32.17
28267;BME280;15525;45.568;5.448;2023-08-17T08:43:14;98030.41;;;33.60;31.58
28267;BME280;15525;45.568;5.448;2023-08-17T08:45:41;98039.94;;;33.86;30.87
28267;BME280;15525;45.568;5.448;2023-08-17T08:48:18;98038.81;;;34.03;30.10
28267;BME280;15525;45.568;5.448;2023-08-17T08:50:45;98047.06;;;34.33;30.26
28267;BME280;15525;45.568;5.448;2023-08-17T08:53:17;98041.88;;;34.54;30.22
28267;BME280;15525;45.568;5.448;2023-08-17T08:55:58;98043.31;;;34.62;29.99
28267;BME280;15525;45.568;5.448;2023-08-17T08:58:29;98041.75;;;34.61;30.30
28267;BME280;15525;45.568;5.448;2023-08-17T09:00:54;98043.25;;;34.85;30.04
28267;BME280;15525;45.568;5.448;2023-08-17T09:03:22;98038.47;;;34.66;29.76
28267;BME280;15525;45.568;5.448;2023-08-17T09:05:50;98046.97;;;34.79;30.12
28267;BME280;15525;45.568;5.448;2023-08-17T09:08:27;98048.66;;;35.12;29.97
28267;BME280;15525;45.568;5.448;2023-08-17T09:10:53;98045.72;;;34.83;29.66
28267;BME280;15525;45.568;5.448;2023-08-17T09:13:19;98034.56;;;34.83;29.68
28267;BME280;15525;45.568;5.448;2023-08-17T09:15:44;98037.38;;;35.19;29.26
28267;BME280;15525;45.568;5.448;2023-08-17T09:18:10;98042.50;;;35.20;29.33
28267;BME280;15525;45.568;5.448;2023-08-17T09:23:03;98035.72;;;35.21;28.64
28267;BME280;15525;45.568;5.448;2023-08-17T09:25:30;98036.66;;;35.51;28.84
28267;BME280;15525;45.568;5.448;2023-08-17T09:27:57;98036.00;;;35.95;28.00
28267;BME280;15525;45.568;5.448;2023-08-17T09:30:22;98029.09;;;36.15;27.49
28267;BME280;15525;45.568;5.448;2023-08-17T09:32:48;98031.19;;;35.95;27.72
28267;BME280;15525;45.568;5.448;2023-08-17T09:35:14;98023.47;;;35.87;28.08
28267;BME280;15525;45.568;5.448;2023-08-17T09:37:40;98028.75;;;36.13;27.15
28267;BME280;15525;45.568;5.448;2023-08-17T09:40:06;98026.44;;;36.40;26.88
28267;BME280;15525;45.568;5.448;2023-08-17T09:42:35;98015.56;;;36.58;26.97
28267;BME280;15525;45.568;5.448;2023-08-17T09:45:00;98021.81;;;36.78;26.67
28267;BME280;15525;45.568;5.448;2023-08-17T09:47:27;98013.03;;;36.92;26.38
28267;BME280;15525;45.568;5.448;2023-08-17T09:49:54;98021.69;;;36.69;26.72
28267;BME280;15525;45.568;5.448;2023-08-17T09:52:20;98010.97;;;36.80;26.83
28267;BME280;15525;45.568;5.448;2023-08-17T09:54:46;98004.97;;;36.94;26.65
28267;BME280;15525;45.568;5.448;2023-08-17T09:57:16;98004.81;;;37.26;25.78
28267;BME280;15525;45.568;5.448;2023-08-17T09:59:41;98005.38;;;37.34;25.60
28267;BME280;15525;45.568;5.448;2023-08-17T10:02:20;97994.88;;;37.63;23.92
28267;BME280;15525;45.568;5.448;2023-08-17T10:04:52;97992.97;;;37.47;25.31
28267;BME280;15525;45.568;5.448;2023-08-17T10:07:19;97997.44;;;37.70;24.63
28267;BME280;15525;45.568;5.448;2023-08-17T10:09:49;97989.00;;;37.95;24.33
28267;BME280;15525;45.568;5.448;2023-08-17T10:12:18;97981.56;;;38.13;24.21
28267;BME280;15525;45.568;5.448;2023-08-17T10:14:51;97987.66;;;38.33;23.72
28267;BME280;15525;45.568;5.448;2023-08-17T10:17:25;97978.69;;;38.60;24.25
28267;BME280;15525;45.568;5.448;2023-08-17T10:19:54;97977.88;;;38.81;23.35
28267;BME280;15525;45.568;5.448;2023-08-17T10:22:29;97972.53;;;37.97;23.77
28267;BME280;15525;45.568;5.448;2023-08-17T10:24:57;97970.31;;;38.26;23.84
28267;BME280;15525;45.568;5.448;2023-08-17T10:27:25;97971.63;;;38.00;23.90
28267;BME280;15525;45.568;5.448;2023-08-17T10:29:52;97966.41;;;38.23;23.83
28267;BME280;15525;45.568;5.448;2023-08-17T10:32:18;97964.38;;;38.79;23.46
28267;BME280;15525;45.568;5.448;2023-08-17T10:34:44;97955.28;;;38.97;23.35
28267;BME280;15525;45.568;5.448;2023-08-17T10:37:10;97953.56;;;39.30;23.02
28267;BME280;15525;45.568;5.448;2023-08-17T10:39:38;97952.13;;;39.56;22.99
28267;BME280;15525;45.568;5.448;2023-08-17T10:42:09;97946.22;;;39.72;22.21
28267;BME280;15525;45.568;5.448;2023-08-17T10:44:39;97946.91;;;40.03;21.92
28267;BME280;15525;45.568;5.448;2023-08-17T10:47:28;97933.19;;;39.96;21.47
28267;BME280;15525;45.568;5.448;2023-08-17T10:49:58;97931.88;;;39.12;21.97
28267;BME280;15525;45.568;5.448;2023-08-17T10:52:32;97933.41;;;39.53;21.22
28267;BME280;15525;45.568;5.448;2023-08-17T10:55:02;97915.09;;;40.06;20.91
28267;BME280;15525;45.568;5.448;2023-08-17T10:57:32;97912.91;;;39.74;20.98
28267;BME280;15525;45.568;5.448;2023-08-17T11:00:07;97911.84;;;39.89;20.97
28267;BME280;15525;45.568;5.448;2023-08-17T11:02:33;97903.84;;;40.51;21.34
28267;BME280;15525;45.568;5.448;2023-08-17T11:05:00;97902.38;;;41.24;20.15
28267;BME280;15525;45.568;5.448;2023-08-17T11:07:27;97911.97;;;41.41;20.47
28267;BME280;15525;45.568;5.448;2023-08-17T11:09:57;97905.56;;;41.08;20.97
28267;BME280;15525;45.568;5.448;2023-08-17T11:12:26;97896.56;;;41.27;21.22
28267;BME280;15525;45.568;5.448;2023-08-17T11:14:52;97892.13;;;41.68;20.72
28267;BME280;15525;45.568;5.448;2023-08-17T11:17:20;97900.75;;;41.32;20.80
28267;BME280;15525;45.568;5.448;2023-08-17T11:19:46;97903.50;;;41.50;20.47
28267;BME280;15525;45.568;5.448;2023-08-17T11:22:12;97898.94;;;41.53;20.63
28267;BME280;15525;45.568;5.448;2023-08-17T11:24:38;97888.28;;;41.33;20.38
28267;BME280;15525;45.568;5.448;2023-08-17T11:27:05;97888.47;;;41.53;20.23
28267;BME280;15525;45.568;5.448;2023-08-17T11:29:32;97889.78;;;41.90;19.90
28267;BME280;15525;45.568;5.448;2023-08-17T11:31:58;97878.66;;;42.10;19.47
28267;BME280;15525;45.568;5.448;2023-08-17T11:34:24;97887.41;;;42.12;20.06
28267;BME280;15525;45.568;5.448;2023-08-17T11:36:49;97882.19;;;42.20;19.42
28267;BME280;15525;45.568;5.448;2023-08-17T11:39:15;97876.19;;;41.89;19.12
28267;BME280;15525;45.568;5.448;2023-08-17T11:41:40;97883.88;;;41.65;18.93
28267;BME280;15525;45.568;5.448;2023-08-17T11:44:06;97882.41;;;41.93;18.86
28267;BME280;15525;45.568;5.448;2023-08-17T11:46:32;97874.94;;;42.28;18.72
28267;BME280;15525;45.568;5.448;2023-08-17T11:49:01;97872.06;;;42.13;18.24
28267;BME280;15525;45.568;5.448;2023-08-17T11:51:30;97871.81;;;41.64;18.03
28267;BME280;15525;45.568;5.448;2023-08-17T11:53:59;97873.63;;;42.00;17.87
28267;BME280;15525;45.568;5.448;2023-08-17T11:56:24;97861.56;;;41.99;17.64
28267;BME280;15525;45.568;5.448;2023-08-17T11:58:50;97861.97;;;41.45;17.00
28267;BME280;15525;45.568;5.448;2023-08-17T12:01:15;97850.63;;;40.98;16.55
28267;BME280;15525;45.568;5.448;2023-08-17T12:03:41;97862.63;;;40.66;16.89
28267;BME280;15525;45.568;5.448;2023-08-17T12:06:07;97849.53;;;40.54;17.01
28267;BME280;15525;45.568;5.448;2023-08-17T12:08:32;97852.66;;;41.06;16.60
28267;BME280;15525;45.568;5.448;2023-08-17T12:10:58;97854.59;;;41.95;16.35
28267;BME280;15525;45.568;5.448;2023-08-17T12:13:32;97854.06;;;41.58;16.00
28267;BME280;15525;45.568;5.448;2023-08-17T12:15:57;97851.41;;;40.66;16.48
28267;BME280;15525;45.568;5.448;2023-08-17T12:18:25;97843.53;;;40.28;17.08
28267;BME280;15525;45.568;5.448;2023-08-17T12:20:54;97844.41;;;40.94;16.91
28267;BME280;15525;45.568;5.448;2023-08-17T12:23:20;97831.69;;;41.78;16.33
28267;BME280;15525;45.568;5.448;2023-08-17T12:25:45;97833.72;;;42.16;15.92
28267;BME280;15525;45.568;5.448;2023-08-17T12:28:14;97833.63;;;41.72;15.75
28267;BME280;15525;45.568;5.448;2023-08-17T12:30:40;97833.16;;;40.94;16.46
28267;BME280;15525;45.568;5.448;2023-08-17T12:33:05;97827.66;;;41.08;16.17
28267;BME280;15525;45.568;5.448;2023-08-17T12:35:31;97825.34;;;40.98;16.37
28267;BME280;15525;45.568;5.448;2023-08-17T12:37:57;97829.22;;;41.33;16.38
28267;BME280;15525;45.568;5.448;2023-08-17T12:40:23;97828.66;;;41.91;16.15
28267;BME280;15525;45.568;5.448;2023-08-17T12:42:49;97828.31;;;42.70;16.02
28267;BME280;15525;45.568;5.448;2023-08-17T12:45:15;97826.28;;;43.05;16.57
28267;BME280;15525;45.568;5.448;2023-08-17T12:47:41;97833.75;;;43.23;15.86
28267;BME280;15525;45.568;5.448;2023-08-17T12:50:07;97817.59;;;42.74;15.75
28267;BME280;15525;45.568;5.448;2023-08-17T12:52:32;97825.06;;;41.90;15.38
28267;BME280;15525;45.568;5.448;2023-08-17T12:54:58;97823.09;;;41.34;15.18
28267;BME280;15525;45.568;5.448;2023-08-17T12:57:23;97835.53;;;41.19;15.37
28267;BME280;15525;45.568;5.448;2023-08-17T12:59:49;97829.47;;;40.88;16.02
28267;BME280;15525;45.568;5.448;2023-08-17T13:02:14;97823.94;;;41.02;15.61
28267;BME280;15525;45.568;5.448;2023-08-17T13:04:41;97823.66;;;41.00;15.64